createdAt,value
2023-04-21T00:01:47.798Z,100.00
2023-04-21T00:04:15.514Z,100.00
2023-04-21T00:06:43.068Z,100.00
2023-04-21T00:09:11.340Z,100.00
2023-04-21T00:11:38.838Z,100.00
2023-04-21T00:14:06.488Z,100.00
2023-04-21T00:16:34.081Z,100.00
2023-04-21T00:19:02.599Z,100.00
2023-04-21T00:21:30.091Z,100.00
2023-04-21T00:23:57.527Z,100.00
2023-04-21T00:26:25.057Z,100.00
2023-04-21T00:28:53.055Z,100.00
2023-04-21T00:31:20.547Z,100.00
2023-04-21T00:33:48.138Z,100.00
2023-04-21T00:36:15.677Z,100.00
2023-04-21T00:38:43.148Z,100.00
2023-04-21T00:41:10.760Z,100.00
2023-04-21T00:44:02.030Z,100.00
2023-04-21T00:46:32.339Z,100.00
2023-04-21T00:49:00.936Z,100.00
2023-04-21T00:51:29.024Z,100.00
2023-04-21T00:53:57.117Z,100.00
2023-04-21T00:56:26.322Z,100.00
2023-04-21T00:58:55.246Z,100.00
2023-04-21T01:01:22.855Z,100.00
2023-04-21T01:03:51.405Z,100.00
2023-04-21T01:06:19.318Z,100.00
2023-04-21T01:08:47.117Z,100.00
2023-04-21T01:11:16.778Z,100.00
2023-04-21T01:13:44.311Z,100.00
2023-04-21T01:16:17.147Z,100.00
2023-04-21T01:18:46.278Z,100.00
2023-04-21T01:21:14.444Z,100.00
2023-04-21T01:23:42.121Z,100.00
2023-04-21T01:26:09.739Z,100.00
2023-04-21T01:28:38.299Z,100.00
2023-04-21T01:31:06.578Z,100.00
2023-04-21T01:33:34.068Z,100.00
2023-04-21T01:36:01.947Z,100.00
2023-04-21T01:38:29.481Z,100.00
2023-04-21T01:40:59.885Z,100.00
2023-04-21T01:43:28.412Z,100.00
2023-04-21T01:45:57.373Z,100.00
2023-04-21T01:48:25.096Z,100.00
2023-04-21T01:50:52.602Z,100.00
2023-04-21T01:53:20.223Z,100.00
2023-04-21T01:55:47.716Z,100.00
2023-04-21T01:58:15.640Z,100.00
2023-04-21T02:00:43.211Z,100.00
2023-04-21T02:03:10.811Z,100.00
2023-04-21T02:05:39.068Z,100.00
2023-04-21T02:08:07.063Z,100.00
2023-04-21T02:10:34.747Z,100.00
2023-04-21T02:13:02.245Z,100.00
2023-04-21T02:15:30.662Z,100.00
2023-04-21T02:17:58.163Z,100.00
2023-04-21T02:20:26.445Z,100.00
2023-04-21T02:22:53.949Z,100.00
2023-04-21T02:25:21.500Z,100.00
2023-04-21T02:27:48.948Z,100.00
2023-04-21T02:30:17.043Z,100.00
2023-04-21T02:32:44.569Z,100.00
2023-04-21T02:35:12.687Z,100.00
2023-04-21T02:37:40.392Z,100.00
2023-04-21T02:40:08.631Z,100.00
2023-04-21T02:42:36.598Z,100.00
2023-04-21T02:45:04.385Z,100.00
2023-04-21T02:47:31.921Z,100.00
2023-04-21T02:49:59.485Z,100.00
2023-04-21T02:52:26.948Z,100.00
2023-04-21T02:54:54.613Z,100.00
2023-04-21T02:57:22.129Z,100.00
2023-04-21T02:59:49.709Z,100.00
2023-04-21T03:02:17.385Z,100.00
2023-04-21T03:04:44.921Z,100.00
2023-04-21T03:07:13.809Z,100.00
2023-04-21T03:09:41.608Z,100.00
2023-04-21T03:12:09.069Z,100.00
2023-04-21T03:14:36.880Z,100.00
2023-04-21T03:17:04.427Z,100.00
2023-04-21T03:19:33.261Z,100.00
2023-04-21T03:22:01.085Z,100.00
2023-04-21T03:24:30.137Z,100.00
2023-04-21T03:26:57.870Z,100.00
2023-04-21T03:29:25.491Z,100.00
2023-04-21T03:31:53.034Z,100.00
2023-04-21T03:34:21.652Z,100.00
2023-04-21T03:36:49.164Z,100.00
2023-04-21T03:39:20.005Z,100.00
2023-04-21T03:41:49.831Z,100.00
2023-04-21T03:44:17.404Z,100.00
2023-04-21T03:46:44.955Z,100.00
2023-04-21T03:49:12.371Z,100.00
2023-04-21T03:51:39.911Z,100.00
2023-04-21T03:54:08.598Z,100.00
2023-04-21T03:56:36.139Z,100.00
2023-04-21T03:59:03.665Z,100.00
2023-04-21T04:01:31.316Z,100.00
2023-04-21T04:03:58.924Z,100.00
2023-04-21T04:06:26.724Z,100.00
2023-04-21T04:08:54.473Z,100.00
2023-04-21T04:11:21.911Z,100.00
2023-04-21T04:13:49.324Z,100.00
2023-04-21T04:16:16.993Z,100.00
2023-04-21T04:18:45.778Z,100.00
2023-04-21T04:21:13.300Z,100.00
2023-04-21T04:23:40.768Z,100.00
2023-04-21T04:26:09.663Z,100.00
2023-04-21T04:28:38.362Z,100.00
2023-04-21T04:31:06.324Z,100.00
2023-04-21T04:33:33.966Z,100.00
2023-04-21T04:36:01.965Z,100.00
2023-04-21T04:38:30.495Z,100.00
2023-04-21T04:40:58.996Z,100.00
2023-04-21T04:43:26.504Z,100.00
2023-04-21T04:45:54.109Z,100.00
2023-04-21T04:48:21.664Z,100.00
2023-04-21T04:50:49.202Z,100.00
2023-04-21T04:53:16.888Z,100.00
2023-04-21T04:55:44.359Z,93.45
2023-04-21T04:58:11.864Z,86.80
2023-04-21T05:00:39.408Z,87.24
2023-04-21T05:03:07.068Z,83.40
2023-04-21T05:05:34.677Z,85.70
2023-04-21T05:08:02.165Z,83.41
2023-04-21T05:10:29.749Z,82.27
2023-04-21T05:12:57.167Z,83.18
2023-04-21T05:15:24.733Z,78.46
2023-04-21T05:17:52.314Z,80.09
2023-04-21T05:20:19.971Z,81.96
2023-04-21T05:22:47.622Z,79.43
2023-04-21T05:25:16.135Z,80.94
2023-04-21T05:27:43.894Z,83.98
2023-04-21T05:30:11.807Z,81.69
2023-04-21T05:32:39.379Z,77.46
2023-04-21T05:35:07.436Z,73.50
2023-04-21T05:37:35.323Z,64.83
2023-04-21T05:40:02.852Z,62.23
2023-04-21T05:42:30.543Z,64.32
2023-04-21T05:44:58.303Z,65.18
2023-04-21T05:47:25.930Z,71.57
2023-04-21T05:49:54.076Z,67.77
2023-04-21T05:52:22.018Z,59.11
2023-04-21T05:54:49.587Z,64.38
2023-04-21T05:57:17.967Z,61.26
2023-04-21T05:59:45.642Z,58.49
2023-04-21T06:02:13.235Z,70.76
2023-04-21T06:04:41.183Z,61.22
2023-04-21T06:07:10.443Z,69.27
2023-04-21T06:09:38.487Z,70.54
2023-04-21T06:12:06.447Z,72.47
2023-04-21T06:14:33.945Z,72.19
2023-04-21T06:17:01.573Z,75.64
2023-04-21T06:19:28.997Z,87.84
2023-04-21T06:21:57.694Z,85.10
2023-04-21T06:24:25.756Z,81.88
2023-04-21T06:26:53.571Z,91.53
2023-04-21T06:29:21.241Z,92.46
2023-04-21T06:31:48.755Z,89.68
2023-04-21T06:34:17.142Z,88.07
2023-04-21T06:36:44.927Z,90.50
2023-04-21T06:39:12.493Z,92.64
2023-04-21T06:41:40.075Z,90.04
2023-04-21T06:44:08.127Z,78.64
2023-04-21T06:46:35.778Z,100.00
2023-04-21T06:49:03.354Z,100.00
2023-04-21T06:51:30.749Z,100.00
2023-04-21T06:53:58.313Z,100.00
2023-04-21T06:56:27.837Z,100.00
2023-04-21T06:58:56.179Z,100.00
2023-04-21T07:01:26.671Z,100.00
2023-04-21T07:03:54.293Z,100.00
2023-04-21T07:06:21.833Z,100.00
2023-04-21T07:08:49.308Z,100.00
2023-04-21T07:11:16.883Z,100.00
2023-04-21T07:13:44.387Z,100.00
2023-04-21T07:16:11.995Z,100.00
2023-04-21T07:18:40.772Z,100.00
2023-04-21T07:21:08.430Z,100.00
2023-04-21T07:23:37.018Z,100.00
2023-04-21T07:26:04.492Z,100.00
2023-04-21T07:28:31.992Z,100.00
2023-04-21T07:31:01.553Z,100.00
2023-04-21T07:33:30.527Z,93.79
2023-04-21T07:35:58.232Z,81.46
2023-04-21T07:38:27.121Z,98.17
2023-04-21T07:40:54.933Z,82.13
2023-04-21T07:43:22.539Z,95.18
2023-04-21T07:45:51.983Z,94.35
2023-04-21T07:48:19.669Z,77.39
2023-04-21T07:50:47.088Z,84.25
2023-04-21T07:53:14.548Z,68.71
2023-04-21T07:55:41.976Z,68.57
2023-04-21T07:58:10.538Z,63.00
2023-04-21T08:00:38.007Z,59.92
2023-04-21T08:03:05.681Z,60.16
2023-04-21T08:05:35.854Z,58.49
2023-04-21T08:08:07.459Z,57.65
2023-04-21T08:10:34.947Z,67.34
2023-04-21T08:13:03.555Z,58.27
2023-04-21T08:15:31.181Z,61.76
2023-04-21T08:17:58.705Z,71.11
2023-04-21T08:20:26.197Z,54.51
2023-04-21T08:22:53.785Z,55.56
2023-04-21T08:25:21.397Z,55.65
2023-04-21T08:27:48.971Z,55.36
2023-04-21T08:30:16.917Z,54.30
2023-04-21T08:32:44.638Z,56.89
2023-04-21T08:35:12.209Z,56.58
2023-04-21T08:37:40.404Z,52.06
2023-04-21T08:40:08.374Z,52.41
2023-04-21T08:42:37.147Z,51.72
2023-04-21T08:45:05.560Z,55.20
2023-04-21T08:47:33.716Z,51.20
2023-04-21T08:50:01.219Z,53.36
2023-04-21T08:52:28.746Z,47.96
2023-04-21T08:54:56.862Z,50.56
2023-04-21T08:57:24.335Z,51.83
2023-04-21T08:59:51.828Z,54.19
2023-04-21T09:02:19.796Z,51.36
2023-04-21T09:04:50.744Z,46.52
2023-04-21T09:07:33.097Z,50.17
2023-04-21T09:10:01.557Z,48.36
2023-04-21T09:12:29.854Z,50.61
2023-04-21T09:14:58.343Z,50.23
2023-04-21T09:17:34.124Z,54.85
2023-04-21T09:20:21.946Z,58.63
2023-04-21T09:22:51.457Z,50.53
2023-04-21T09:25:22.583Z,50.61
2023-04-21T09:27:50.210Z,52.49
2023-04-21T09:30:23.069Z,52.83
2023-04-21T09:32:50.730Z,50.36
2023-04-21T09:35:18.323Z,49.05
2023-04-21T09:37:46.101Z,50.45
2023-04-21T09:40:19.193Z,48.67
2023-04-21T09:42:47.025Z,50.06
2023-04-21T09:47:50.255Z,51.15
2023-04-21T09:50:39.254Z,48.68
2023-04-21T09:53:17.914Z,49.46
2023-04-21T09:55:49.784Z,47.65
2023-04-21T09:58:24.161Z,48.00
2023-04-21T10:00:53.757Z,52.04
2023-04-21T10:03:27.086Z,45.96
2023-04-21T10:05:55.762Z,46.26
2023-04-21T10:08:23.541Z,48.54
2023-04-21T10:10:53.053Z,51.75
2023-04-21T10:13:22.359Z,46.42
2023-04-21T10:16:01.154Z,46.10
2023-04-21T10:18:29.281Z,49.03
2023-04-21T10:20:58.025Z,49.34
2023-04-21T10:23:42.234Z,47.31
2023-04-21T10:26:11.502Z,47.82
2023-04-21T10:28:43.124Z,47.60
2023-04-21T10:31:20.853Z,49.88
2023-04-21T10:34:06.832Z,54.92
2023-04-21T10:36:36.105Z,48.31
2023-04-21T10:39:04.775Z,47.07
2023-04-21T10:41:36.370Z,48.90
2023-04-21T10:44:24.754Z,47.56
2023-04-21T10:46:53.982Z,46.83
2023-04-21T10:49:26.400Z,45.95
2023-04-21T10:52:00.034Z,51.25
2023-04-21T10:54:31.862Z,48.52
2023-04-21T10:56:59.703Z,46.89
2023-04-21T10:59:27.354Z,46.46
2023-04-21T11:01:55.259Z,48.70
2023-04-21T11:04:23.693Z,48.81
2023-04-21T11:07:08.214Z,48.92
2023-04-21T11:09:36.952Z,48.22
2023-04-21T11:12:18.421Z,47.29
2023-04-21T11:14:50.233Z,48.34
2023-04-21T11:17:19.676Z,48.11
2023-04-21T11:19:50.827Z,50.67
2023-04-21T11:22:20.950Z,54.00
2023-04-21T11:24:51.021Z,52.41
2023-04-21T11:27:19.383Z,50.93
2023-04-21T11:29:47.066Z,49.90
2023-04-21T11:32:15.643Z,52.29
2023-04-21T11:34:43.522Z,47.58
2023-04-21T11:37:16.471Z,49.15
2023-04-21T11:39:45.063Z,49.97
2023-04-21T11:42:20.640Z,48.98
2023-04-21T11:44:48.244Z,49.89
2023-04-21T11:47:21.089Z,48.62
2023-04-21T11:49:56.895Z,49.15
2023-04-21T11:52:36.133Z,55.11
2023-04-21T11:55:12.387Z,51.88
2023-04-21T11:57:40.976Z,50.33
2023-04-21T12:00:19.295Z,46.47
2023-04-21T12:02:56.453Z,47.68
2023-04-21T12:05:24.499Z,45.21
2023-04-21T12:07:56.268Z,47.56
2023-04-21T12:10:23.958Z,46.69
2023-04-21T12:12:51.943Z,46.43
2023-04-21T12:15:21.724Z,45.85
2023-04-21T12:17:51.873Z,46.41
2023-04-21T12:20:22.444Z,42.71
2023-04-21T12:22:50.653Z,45.79
2023-04-21T12:25:18.174Z,43.64
2023-04-21T12:27:53.420Z,40.90
2023-04-21T12:30:21.713Z,41.95
2023-04-21T12:32:49.302Z,46.04
2023-04-21T12:35:17.130Z,44.44
2023-04-21T12:37:45.264Z,43.25
2023-04-21T12:40:13.209Z,42.38
2023-04-21T12:42:40.855Z,42.75
2023-04-21T12:45:08.878Z,42.44
2023-04-21T12:47:37.733Z,42.23
2023-04-21T12:50:05.763Z,44.48
2023-04-21T12:52:33.242Z,43.86
2023-04-21T12:55:00.930Z,43.04
2023-04-21T12:57:29.127Z,43.65
2023-04-21T12:59:56.728Z,44.19
2023-04-21T13:02:24.293Z,43.11
2023-04-21T13:04:52.182Z,44.68
2023-04-21T13:07:22.238Z,44.78
2023-04-21T13:09:49.769Z,44.95
2023-04-21T13:12:17.476Z,42.28
2023-04-21T13:14:44.949Z,46.16
2023-04-21T13:17:12.724Z,42.66
2023-04-21T13:19:40.322Z,42.80
2023-04-21T13:22:07.811Z,40.01
2023-04-21T13:24:35.454Z,41.11
2023-04-21T13:27:02.879Z,42.95
2023-04-21T13:29:34.111Z,43.56
2023-04-21T13:32:06.622Z,43.27
2023-04-21T13:34:34.997Z,42.89
2023-04-21T13:37:02.659Z,42.07
2023-04-21T13:39:30.434Z,41.96
2023-04-21T13:41:58.219Z,43.67
2023-04-21T13:44:25.853Z,40.74
2023-04-21T13:46:54.204Z,42.72
2023-04-21T13:49:21.902Z,42.59
2023-04-21T13:51:49.376Z,42.89
2023-04-21T13:54:16.967Z,42.15
2023-04-21T13:56:44.547Z,43.03
2023-04-21T13:59:14.970Z,42.38
2023-04-21T14:01:42.683Z,42.96
2023-04-21T14:04:10.376Z,42.65
2023-04-21T14:06:38.056Z,43.64
2023-04-21T14:09:06.629Z,43.88
2023-04-21T14:11:34.270Z,44.08
2023-04-21T14:14:09.393Z,43.37
2023-04-21T14:16:38.353Z,45.33
2023-04-21T14:19:06.635Z,44.02
2023-04-21T14:21:35.337Z,44.20
2023-04-21T14:24:02.850Z,42.26
2023-04-21T14:26:30.516Z,40.72
2023-04-21T14:28:59.769Z,42.43
2023-04-21T14:31:28.083Z,40.82
2023-04-21T14:33:56.150Z,41.95
2023-04-21T14:36:23.654Z,43.71
2023-04-21T14:38:51.188Z,44.16
2023-04-21T14:41:18.979Z,45.15
2023-04-21T14:43:47.682Z,46.92
2023-04-21T14:46:17.200Z,46.67
2023-04-21T14:48:44.969Z,46.35
2023-04-21T14:51:12.520Z,46.08
2023-04-21T14:53:40.810Z,46.31
2023-04-21T14:56:08.468Z,45.86
2023-04-21T14:58:35.908Z,47.03
2023-04-21T15:01:03.652Z,46.45
2023-04-21T15:03:31.747Z,47.82
2023-04-21T15:05:59.319Z,48.02
2023-04-21T15:08:27.771Z,47.57
2023-04-21T15:10:56.482Z,49.35
2023-04-21T15:13:24.188Z,47.67
2023-04-21T15:15:52.347Z,49.79
2023-04-21T15:18:21.200Z,47.06
2023-04-21T15:20:48.680Z,48.46
2023-04-21T15:23:16.298Z,47.57
2023-04-21T15:25:43.970Z,46.89
2023-04-21T15:28:12.941Z,47.99
2023-04-21T15:30:40.567Z,47.74
2023-04-21T15:33:08.223Z,48.01
2023-04-21T15:35:36.500Z,48.08
2023-04-21T15:38:04.679Z,46.83
2023-04-21T15:40:32.347Z,47.14
2023-04-21T15:42:59.840Z,46.06
2023-04-21T15:45:27.369Z,47.21
2023-04-21T15:47:55.426Z,46.46
2023-04-21T15:50:23.037Z,45.39
2023-04-21T15:52:50.567Z,46.62
2023-04-21T15:55:18.186Z,46.10
2023-04-21T15:57:46.052Z,46.27
2023-04-21T16:00:14.690Z,45.91
2023-04-21T16:02:42.432Z,47.08
2023-04-21T16:05:10.376Z,45.84
2023-04-21T16:07:37.974Z,46.62
2023-04-21T16:10:05.943Z,46.54
2023-04-21T16:12:33.589Z,47.09
2023-04-21T16:15:16.081Z,46.84
2023-04-21T16:17:49.592Z,46.81
2023-04-21T16:20:17.178Z,47.93
2023-04-21T16:22:44.847Z,47.30
2023-04-21T16:25:14.013Z,47.76
2023-04-21T16:27:41.684Z,47.31
2023-04-21T16:30:09.568Z,46.70
2023-04-21T16:32:37.198Z,47.52
2023-04-21T16:35:08.222Z,46.89
2023-04-21T16:37:37.342Z,48.09
2023-04-21T16:40:08.997Z,48.40
2023-04-21T16:42:37.144Z,50.26
2023-04-21T16:45:05.980Z,48.70
2023-04-21T16:47:41.705Z,46.51
2023-04-21T16:50:10.309Z,48.58
2023-04-21T16:52:38.325Z,48.70
2023-04-21T16:55:06.336Z,48.48
2023-04-21T16:57:34.333Z,49.48
2023-04-21T17:00:02.261Z,49.91
2023-04-21T17:02:29.796Z,48.67
2023-04-21T17:04:57.470Z,50.82
2023-04-21T17:07:25.010Z,50.17
2023-04-21T17:09:52.584Z,51.01
2023-04-21T17:12:20.086Z,50.55
2023-04-21T17:14:48.684Z,51.51
2023-04-21T17:17:16.264Z,51.53
2023-04-21T17:19:43.798Z,51.78
2023-04-21T17:22:11.260Z,52.08
2023-04-21T17:24:51.565Z,52.86
2023-04-21T17:27:21.565Z,53.98
2023-04-21T17:29:49.116Z,53.13
2023-04-21T17:32:16.996Z,54.75
2023-04-21T17:34:44.536Z,54.69
2023-04-21T17:37:12.126Z,54.57
2023-04-21T17:39:39.675Z,54.94
2023-04-21T17:42:07.217Z,55.27
2023-04-21T17:44:34.991Z,55.53
2023-04-21T17:47:04.145Z,56.05
2023-04-21T17:49:31.847Z,56.01
2023-04-21T17:51:59.387Z,56.26
2023-04-21T17:54:26.903Z,56.13
2023-04-21T17:56:54.438Z,57.83
2023-04-21T17:59:22.490Z,56.86
2023-04-21T18:01:50.071Z,56.35
2023-04-21T18:04:17.883Z,55.50
2023-04-21T18:06:45.886Z,54.30
2023-04-21T18:09:13.336Z,51.70
2023-04-21T18:11:41.790Z,51.24
2023-04-21T18:14:09.774Z,51.72
2023-04-21T18:16:37.334Z,51.19
2023-04-21T18:19:05.179Z,51.40
2023-04-21T18:21:33.556Z,53.25
2023-04-21T18:24:01.374Z,60.39
2023-04-21T18:26:28.959Z,62.45
2023-04-21T18:28:59.645Z,66.06
2023-04-21T18:31:28.694Z,67.45
2023-04-21T18:33:56.606Z,70.49
2023-04-21T18:36:24.312Z,72.05
2023-04-21T18:38:51.866Z,71.16
2023-04-21T18:41:19.830Z,69.22
2023-04-21T18:43:47.414Z,68.57
2023-04-21T18:46:14.915Z,69.54
2023-04-21T18:48:42.347Z,70.36
2023-04-21T18:51:09.868Z,71.36
2023-04-21T18:53:37.362Z,71.57
2023-04-21T18:56:04.957Z,71.06
2023-04-21T18:58:32.525Z,70.39
2023-04-21T19:01:00.075Z,70.63
2023-04-21T19:03:27.784Z,70.98
2023-04-21T19:05:55.455Z,71.23
2023-04-21T19:08:38.235Z,72.68
2023-04-21T19:11:10.421Z,72.72
2023-04-21T19:13:37.922Z,71.68
2023-04-21T19:16:05.634Z,70.27
2023-04-21T19:18:33.239Z,69.97
2023-04-21T19:21:00.929Z,72.32
2023-04-21T19:23:28.364Z,73.10
2023-04-21T19:25:57.568Z,72.99
2023-04-21T19:28:24.998Z,74.36
2023-04-21T19:30:52.486Z,75.15
2023-04-21T19:33:20.018Z,74.52
2023-04-21T19:35:47.588Z,74.45
2023-04-21T19:38:15.281Z,75.45
2023-04-21T19:40:45.034Z,77.49
2023-04-21T19:43:13.038Z,78.09
2023-04-21T19:45:40.775Z,78.14
2023-04-21T19:48:08.332Z,79.02
2023-04-21T19:50:36.594Z,81.44
2023-04-21T19:53:04.270Z,81.17
2023-04-21T19:55:32.071Z,83.20
2023-04-21T19:57:59.584Z,85.05
2023-04-21T20:00:27.164Z,86.71
2023-04-21T20:02:54.774Z,85.88
2023-04-21T20:05:22.446Z,84.99
2023-04-21T20:07:50.065Z,84.64
2023-04-21T20:10:17.691Z,85.04
2023-04-21T20:12:45.229Z,83.98
2023-04-21T20:15:13.504Z,83.50
2023-04-21T20:17:41.991Z,84.34
2023-04-21T20:20:09.805Z,86.52
2023-04-21T20:22:37.460Z,89.28
2023-04-21T20:25:06.101Z,90.07
2023-04-21T20:27:34.086Z,88.51
2023-04-21T20:30:01.640Z,89.05
2023-04-21T20:32:29.195Z,87.99
2023-04-21T20:34:56.689Z,87.73
2023-04-21T20:37:24.673Z,88.83
2023-04-21T20:39:52.513Z,90.78
2023-04-21T20:42:21.963Z,92.10
2023-04-21T20:44:49.506Z,93.64
2023-04-21T20:47:17.642Z,92.72
2023-04-21T20:49:47.324Z,93.59
2023-04-21T20:52:15.101Z,91.07
2023-04-21T20:54:42.653Z,90.23
2023-04-21T20:57:10.693Z,86.26
2023-04-21T20:59:38.681Z,88.46
2023-04-21T21:02:06.465Z,88.94
2023-04-21T21:04:34.081Z,90.41
2023-04-21T21:07:02.009Z,89.05
2023-04-21T21:09:30.641Z,89.30
2023-04-21T21:11:58.141Z,90.00
2023-04-21T21:14:25.552Z,90.93
2023-04-21T21:16:54.709Z,93.78
2023-04-21T21:19:22.404Z,92.73
2023-04-21T21:21:49.861Z,93.97
2023-04-21T21:24:17.369Z,93.67
2023-04-21T21:26:44.831Z,95.55
2023-04-21T21:29:12.309Z,95.46
2023-04-21T21:31:40.005Z,95.10
2023-04-21T21:34:07.516Z,95.84
2023-04-21T21:36:35.184Z,95.46
2023-04-21T21:39:02.616Z,94.10
2023-04-21T21:41:30.159Z,92.30
2023-04-21T21:43:57.570Z,92.86
2023-04-21T21:46:25.232Z,91.52
2023-04-21T21:48:52.650Z,91.44
2023-04-21T21:51:20.195Z,90.84
2023-04-21T21:53:47.586Z,90.62
2023-04-21T21:56:15.615Z,90.98
2023-04-21T21:58:43.139Z,90.94
2023-04-21T22:01:10.615Z,92.16
2023-04-21T22:03:38.196Z,91.89
2023-04-21T22:06:06.352Z,91.77
2023-04-21T22:08:33.763Z,93.28
2023-04-21T22:11:04.091Z,93.99
2023-04-21T22:13:32.201Z,94.09
2023-04-21T22:15:59.651Z,94.94
2023-04-21T22:18:27.238Z,96.43
2023-04-21T22:20:54.980Z,96.38
2023-04-21T22:27:35.048Z,94.84
2023-04-21T22:30:03.536Z,95.84
2023-04-21T22:32:32.403Z,95.55
2023-04-21T22:35:00.666Z,95.31
2023-04-21T22:37:28.321Z,97.51
2023-04-21T22:39:57.558Z,96.96
2023-04-21T22:42:25.141Z,97.35
2023-04-21T22:44:52.816Z,95.82
2023-04-21T22:47:20.648Z,97.20
2023-04-21T22:49:48.402Z,96.88
2023-04-21T22:52:15.842Z,98.11
2023-04-21T22:54:43.323Z,98.75
2023-04-21T22:57:10.899Z,98.96
2023-04-21T22:59:38.815Z,99.80
2023-04-21T23:02:06.591Z,98.82
2023-04-21T23:04:35.399Z,99.89
2023-04-21T23:07:03.330Z,99.88
2023-04-21T23:09:30.829Z,100.00
2023-04-21T23:11:58.701Z,99.96
2023-04-21T23:14:26.333Z,100.00
2023-04-21T23:16:53.878Z,100.00
2023-04-21T23:19:21.501Z,99.91
2023-04-21T23:21:49.004Z,100.00
2023-04-21T23:24:16.480Z,100.00
2023-04-21T23:26:44.005Z,100.00
2023-04-21T23:29:11.487Z,100.00
2023-04-21T23:31:39.186Z,100.00
2023-04-21T23:34:07.273Z,100.00
2023-04-21T23:36:34.653Z,100.00
2023-04-21T23:39:02.179Z,100.00
2023-04-21T23:41:29.648Z,100.00
2023-04-21T23:43:57.114Z,100.00
2023-04-21T23:46:24.692Z,100.00
2023-04-21T23:48:52.241Z,100.00
2023-04-21T23:51:19.878Z,100.00
2023-04-21T23:53:47.511Z,100.00
2023-04-21T23:56:14.990Z,100.00
2023-04-21T23:58:42.464Z,100.00
